^^
Datos históricos de la estación: Murcia-Puente Tocinos
Diario Informe para Octubre 30, 2021 Unidades:  Métrico    Ingés   Ambas
Diario Semanal Mensual Anual
  Máxima: Mínima: Promedio:
Temperatura: 22.4 °C 16.2 °C 18.5 °C
Punto de rocio: 18.2 °C 14.4 °C 16.5 °C
Humedad: 95% 74% 89%
Velocidad viento: 7.6km/h 0km/h 3km/h
Racha viento: 13km/h - -
Viento- - SE
Presión: 1011.8 hPa 1008.5 hPa -
Precipitación: 1.8 mm    
 
 
Tabla de datos para Octubre 30, 2021
Hora Temperatura Punto de rocio Presión Viento Velocidad viento Racha viento Humedad Intensidad lluvia(por hora) Nubes
00:04 18.7 °C 14.4 °C 1011.7 hPa ESE 2.9 km/h 5.8 km/h 76% 0.0 mm
00:09 18.7 °C 14.4 °C 1011.7 hPa ESE 3 km/h 5.6 km/h 76% 0.0 mm
00:14 18.7 °C 14.7 °C 1011.5 hPa ESE 3.2 km/h 5.8 km/h 77.4% 0.0 mm
00:19 18.7 °C 14.7 °C 1011.5 hPa ENE 3.5 km/h 7.4 km/h 78% 0.0 mm
00:24 18.5 °C 14.7 °C 1011.5 hPa NE 3.9 km/h 7.6 km/h 78.7% 0.0 mm
00:29 18.3 °C 14.7 °C 1011.3 hPa NE 4.2 km/h 9.5 km/h 79.2% 0.0 mm
00:34 18.3 °C 14.8 °C 1011.3 hPa NNE 4.7 km/h 9.3 km/h 80.2% 0.0 mm
00:39 18.2 °C 14.9 °C 1011.6 hPa NE 4.7 km/h 5.8 km/h 81% 0.0 mm
00:44 18.2 °C 14.9 °C 1011.6 hPa Este 4.7 km/h 7.4 km/h 81% 0.0 mm
00:49 18.2 °C 14.9 °C 1011.6 hPa Este 4.3 km/h 7.4 km/h 81% 0.0 mm
00:54 18.1 °C 15 °C 1011.6 hPa Este 3.9 km/h 7.4 km/h 81.9% 0.0 mm
00:59 18 °C 14.9 °C 1011.6 hPa Este 3.9 km/h 5.6 km/h 82.1% 0.0 mm
01:04 17.9 °C 14.9 °C 1011.6 hPa ENE 3.9 km/h 3.7 km/h 83% 0.3 mm
01:09 17.9 °C 14.9 °C 1011.6 hPa NNE 3.2 km/h 5.8 km/h 83% 0.3 mm
01:14 17.9 °C 15.2 °C 1011.5 hPa North 2.3 km/h 5.6 km/h 83.9% 0.3 mm
01:19 17.8 °C 15.1 °C 1011.5 hPa North 2.6 km/h 5.6 km/h 84% 0.3 mm
01:24 17.8 °C 15.2 °C 1011.5 hPa North 3.2 km/h 7.4 km/h 84.8% 0.3 mm
01:29 17.7 °C 15.2 °C 1011.4 hPa NNE 3.1 km/h 7.4 km/h 85% 0.3 mm
01:34 17.6 °C 15.1 °C 1011.4 hPa NNE 2.9 km/h 4.7 km/h 85.2% 0.5 mm
01:39 17.6 °C 15.2 °C 1011.5 hPa NE 2.6 km/h 5.6 km/h 86% 0.5 mm
01:44 17.6 °C 15.3 °C 1011.5 hPa North 2.3 km/h 7.4 km/h 86.2% 0.5 mm
01:49 17.5 °C 15.4 °C 1011.5 hPa NO 2.6 km/h 5.6 km/h 87% 0.8 mm
01:54 17.5 °C 15.5 °C 1011.5 hPa NO 3.2 km/h   87.8% 0.8 mm
01:59 17.4 °C 15.4 °C 1011.3 hPa NO 1.8 km/h   88% 0.8 mm
02:04 17.4 °C 15.4 °C 1011.3 hPa Calm   7.6 km/h 88% 1.0 mm
02:09 17.4 °C 15.4 °C 1011.3 hPa ESE 1.3 km/h 9.5 km/h 88% 1.0 mm
02:14 17.3 °C 15.2 °C 1011.1 hPa ESE 3.2 km/h 9.3 km/h 88% 1.0 mm
02:19 17.1 °C 15.2 °C 1011.1 hPa ESE 3.9 km/h 7.4 km/h 88.2% 1.0 mm
02:24 17.1 °C 15.2 °C 1011.1 hPa ESE 5 km/h 4.7 km/h 89% 1.0 mm
02:29 17 °C 15.1 °C 1010.9 hPa ESE 3 km/h 3.7 km/h 89% 1.2 mm
02:34 16.9 °C 15.1 °C 1010.9 hPa Calm   7.4 km/h 89.2% 1.2 mm
02:39 16.9 °C 15.2 °C 1011.0 hPa ONO 1.2 km/h 10 km/h 90% 1.0 mm
02:44 16.9 °C 15.2 °C 1011.0 hPa NNO 2.9 km/h 9.3 km/h 90% 1.0 mm
02:49 16.9 °C 15.2 °C 1011.0 hPa NNO 3.7 km/h 9.5 km/h 90% 1.0 mm
02:54 16.9 °C 15.3 °C 1011.0 hPa NNO 5 km/h 9.5 km/h 90.4% 0.7 mm
02:59 16.9 °C 15.4 °C 1010.8 hPa NO 5 km/h 8.7 km/h 91% 0.7 mm
03:04 16.9 °C 15.4 °C 1010.8 hPa NO 5 km/h 9.3 km/h 91% 0.7 mm
03:09 16.9 °C 15.4 °C 1010.8 hPa NNO 4.5 km/h 5.6 km/h 91% 0.2 mm
03:14 16.9 °C 15.5 °C 1010.6 hPa NNO 3.9 km/h 4.7 km/h 91.5% 0.2 mm
03:19 16.8 °C 15.5 °C 1010.6 hPa NNO 3.2 km/h 3.7 km/h 91.7% 0.2 mm
03:24 16.8 °C 15.5 °C 1010.6 hPa NNO 2.3 km/h   92% 0.2 mm
03:29 16.8 °C 15.5 °C 1010.6 hPa NNO 1.4 km/h   92% 0.2 mm
03:34 16.8 °C 15.5 °C 1010.6 hPa Calm   7.6 km/h 92% 0.0 mm
03:39 16.8 °C 15.5 °C 1010.6 hPa SE 1.5 km/h 9.5 km/h 92% 0.0 mm
03:44 16.8 °C 15.5 °C 1010.2 hPa SSE 3.9 km/h 9.3 km/h 92% 0.3 mm
03:49 16.7 °C 15.4 °C 1010.2 hPa Sur 4.3 km/h 8.4 km/h 92% 0.3 mm
03:54 16.7 °C 15.5 °C 1010.3 hPa SSE 5 km/h 5.8 km/h 92.9% 0.3 mm
03:59 16.7 °C 15.6 °C 1010.3 hPa Sur 4.2 km/h 5.8 km/h 93% 0.3 mm
04:04 16.7 °C 15.6 °C 1010.3 hPa Sur 3.2 km/h 4.7 km/h 93% 0.3 mm
04:09 16.7 °C 15.6 °C 1010.3 hPa Sur 1.9 km/h   93% 0.3 mm
04:14 16.7 °C 15.6 °C 1009.9 hPa Calm     93% 0.3 mm
04:19 16.7 °C 15.6 °C 1009.9 hPa Calm   5.6 km/h 93% 0.3 mm
04:24 16.7 °C 15.6 °C 1009.9 hPa Calm   5.6 km/h 93% 0.3 mm
04:29 16.7 °C 15.6 °C 1009.6 hPa ESE 1.3 km/h 5.6 km/h 93% 0.3 mm
04:34 16.7 °C 15.6 °C 1009.6 hPa ESE 3.2 km/h 5.6 km/h 93% 0.3 mm
04:39 16.7 °C 15.5 °C 1009.6 hPa ESE 3.1 km/h 3.9 km/h 93% 0.3 mm
04:44 16.6 °C 15.4 °C 1009.3 hPa ESE 2.9 km/h 5.8 km/h 93% 0.0 mm
04:49 16.6 °C 15.4 °C 1009.3 hPa ESE 2.6 km/h 5.6 km/h 93% 0.0 mm
04:54 16.6 °C 15.4 °C 1009.3 hPa ESE 2.3 km/h 3.7 km/h 93% 0.0 mm
04:59 16.5 °C 15.4 °C 1009.2 hPa ESE 1.3 km/h   93% 0.0 mm
05:04 16.4 °C 15.3 °C 1009.2 hPa Calm     93% 0.0 mm
05:09 16.5 °C 15.5 °C 1009.3 hPa Calm   2.3 km/h 93.7% 0.0 mm
05:14 16.6 °C 15.6 °C 1009.3 hPa Calm     94% 0.0 mm
05:19 16.6 °C 15.6 °C 1009.3 hPa Calm     94% 0.0 mm
05:24 16.6 °C 15.6 °C 1009.3 hPa Calm     94% 0.0 mm
05:29 16.6 °C 15.6 °C 1009.1 hPa Calm     94% 0.0 mm
05:34 16.6 °C 15.6 °C 1009.1 hPa Calm     94% 0.0 mm
05:39 16.6 °C 15.6 °C 1009.1 hPa Calm     94% 0.0 mm
05:44 16.6 °C 15.6 °C 1009.0 hPa Calm   5.6 km/h 94% 0.0 mm
05:49 16.5 °C 15.6 °C 1009.0 hPa ESE 1.2 km/h 4.7 km/h 94% 0.0 mm
05:54 16.5 °C 15.6 °C 1009.0 hPa SSE 2.9 km/h 5.8 km/h 94% 0.0 mm
05:59 16.5 °C 15.6 °C 1009.0 hPa SO 2.9 km/h 5.6 km/h 94% 0.0 mm
06:04 16.5 °C 15.5 °C 1009.0 hPa Sur 2.9 km/h   94% 0.0 mm
06:09 16.4 °C 15.5 °C 1009.0 hPa Sur 1.7 km/h   94% 0.0 mm
06:14 16.4 °C 15.5 °C 1009.0 hPa Calm     94% 0.0 mm
06:19 16.5 °C 15.5 °C 1009.0 hPa Calm     94% 0.0 mm
06:24 16.5 °C 15.5 °C 1009.0 hPa Calm     94% 0.0 mm
06:29 16.5 °C 15.6 °C 1008.8 hPa Calm     94% 0.0 mm
06:34 16.5 °C 15.6 °C 1008.8 hPa Calm     94% 0.0 mm
06:39 16.5 °C 15.5 °C 1008.9 hPa Calm     94% 0.0 mm
06:44 16.5 °C 15.6 °C 1008.9 hPa Calm   5.6 km/h 94% 0.0 mm
06:49 16.4 °C 15.5 °C 1008.9 hPa Calm   3.9 km/h 94% 0.0 mm
06:54 16.4 °C 15.4 °C 1009.0 hPa Calm   4.7 km/h 94% 0.0 mm
06:59 16.4 °C 15.4 °C 1009.0 hPa ONO 0.9 km/h 5.6 km/h 94% 0.0 mm
07:04 16.4 °C 15.4 °C 1009.0 hPa ONO 2.3 km/h   94% 0.0 mm
07:09 16.4 °C 15.5 °C 1009.0 hPa SSO 2.3 km/h 7.4 km/h 94% 0.0 mm
07:14 16.5 °C 15.6 °C 1008.9 hPa Sur 2.3 km/h 4.7 km/h 94% 0.0 mm
07:19 16.5 °C 15.6 °C 1008.9 hPa SSE 2.6 km/h 7.4 km/h 94% 0.0 mm
07:24 16.4 °C 15.5 °C 1008.9 hPa SE 3.2 km/h 7.6 km/h 94% 0.0 mm
07:29 16.4 °C 15.4 °C 1008.9 hPa Este 3.8 km/h 7.4 km/h 94% 0.0 mm
07:34 16.3 °C 15.3 °C 1008.9 hPa Este 4.7 km/h 5.8 km/h 94% 0.0 mm
07:39 16.3 °C 15.3 °C 1008.9 hPa ESE 4.1 km/h 6.4 km/h 94% 0.0 mm
07:44 16.2 °C 15.2 °C 1008.9 hPa SE 3.2 km/h 7.4 km/h 94% 0.0 mm
07:49 16.2 °C 15.2 °C 1008.9 hPa SE 3.1 km/h 3.9 km/h 94% 0.0 mm
07:54 16.2 °C 15.2 °C 1008.9 hPa SE 2.9 km/h 5.8 km/h 94% 0.0 mm
07:59 16.2 °C 15.2 °C 1008.8 hPa ESE 2.6 km/h 3.9 km/h 94% 0.0 mm
08:04 16.2 °C 15.2 °C 1008.8 hPa ESE 2.3 km/h   94.1% 0.0 mm
08:09 16.2 °C 15.4 °C 1008.8 hPa ESE 1.4 km/h   95% 0.0 mm
08:14 16.2 °C 15.4 °C 1008.7 hPa Calm     95% 0.0 mm
08:19 16.2 °C 15.4 °C 1008.7 hPa Calm     95% 0.0 mm
08:24 16.2 °C 15.4 °C 1008.9 hPa Calm     95% 0.0 mm
08:29 16.2 °C 15.4 °C 1008.9 hPa Calm     95% 0.0 mm
08:34 16.2 °C 15.4 °C 1008.9 hPa Calm   5.8 km/h 95% 0.0 mm
08:39 16.3 °C 15.5 °C 1008.9 hPa SE 1.2 km/h 5.8 km/h 95% 0.0 mm
08:44 16.3 °C 15.5 °C 1008.9 hPa Sur 2.9 km/h 7.4 km/h 95% 0.0 mm
08:49 16.4 °C 15.6 °C 1008.9 hPa SSE 3.3 km/h 7.6 km/h 95% 0.0 mm
08:54 16.4 °C 15.6 °C 1008.9 hPa SSE 3.9 km/h 7.6 km/h 95% 0.0 mm
08:59 16.3 °C 15.5 °C 1008.8 hPa SE 4.4 km/h 10 km/h 95% 0.0 mm
09:04 16.3 °C 15.5 °C 1008.8 hPa ESE 5 km/h 9.3 km/h 95% 0.0 mm
09:09 16.3 °C 15.5 °C 1008.8 hPa ESE 4.5 km/h 5.6 km/h 95% 0.0 mm
09:14 16.2 °C 15.4 °C 1008.7 hPa SE 3.9 km/h 7.4 km/h 95% 0.0 mm
09:19 16.3 °C 15.5 °C 1008.7 hPa Sur 3.5 km/h 7.4 km/h 95% 0.0 mm
09:24 16.3 °C 15.5 °C 1009.1 hPa SSO 2.9 km/h 5 km/h 95% 0.0 mm
09:29 16.3 °C 15.5 °C 1009.1 hPa ONO 2.9 km/h 5.8 km/h 95% 0.0 mm
09:34 16.4 °C 15.6 °C 1009.1 hPa NO 2.9 km/h 5.8 km/h 95% 0.0 mm
09:39 16.4 °C 15.6 °C 1009.2 hPa NO 2.9 km/h 5.8 km/h 95% 0.0 mm
09:44 16.4 °C 15.7 °C 1009.2 hPa NNO 2.9 km/h 5.6 km/h 95% 0.0 mm
09:49 16.5 °C 15.7 °C 1009.2 hPa ESE 3 km/h 9.5 km/h 95% 0.0 mm
09:54 16.4 °C 15.6 °C 1009.2 hPa SE 3.2 km/h 7.4 km/h 95% 0.0 mm
09:59 16.4 °C 15.6 °C 1009.2 hPa SE 3.2 km/h 3.9 km/h 95% 0.0 mm
10:04 16.5 °C 15.7 °C 1009.2 hPa SE 3.2 km/h 1.9 km/h 95% 0.0 mm
10:09 16.6 °C 15.7 °C 1009.4 hPa SE 1.9 km/h   95% 0.0 mm
10:14 16.6 °C 15.7 °C 1009.4 hPa Calm   6.9 km/h 95% 0.0 mm
10:19 16.5 °C 15.7 °C 1009.4 hPa Este 1 km/h 7.4 km/h 95% 0.0 mm
10:24 16.6 °C 15.8 °C 1009.5 hPa Este 2.3 km/h 3.7 km/h 95% 0.0 mm
10:29 16.6 °C 15.8 °C 1009.5 hPa SE 2.3 km/h 7.4 km/h 95% 0.0 mm
10:34 16.7 °C 15.9 °C 1009.5 hPa SE 2.3 km/h 5.6 km/h 95% 0.0 mm
10:39 16.7 °C 15.9 °C 1009.6 hPa SE 2.3 km/h   95% 0.0 mm
10:44 16.8 °C 16 °C 1009.6 hPa SE 2.3 km/h   95% 0.0 mm
10:49 16.8 °C 16.1 °C 1009.6 hPa SE 1.4 km/h   95% 0.0 mm
10:54 16.9 °C 16.1 °C 1009.6 hPa Calm   4.7 km/h 95% 0.0 mm
10:59 16.9 °C 16.1 °C 1009.6 hPa Calm   5.8 km/h 95% 0.0 mm
11:04 17 °C 16.1 °C 1009.6 hPa Calm   5.6 km/h 95% 0.0 mm
11:09 17.1 °C 16.2 °C 1009.6 hPa NE 1.2 km/h 6.4 km/h 95% 0.0 mm
11:14 17 °C 16 °C 1009.6 hPa NE 2.9 km/h 7.4 km/h 94% 0.0 mm
11:19 17 °C 16.2 °C 1009.6 hPa NE 3 km/h 5.8 km/h 94.8% 0.0 mm
11:24 17.1 °C 16.1 °C 1009.6 hPa NE 3.2 km/h 3.7 km/h 94% 0.0 mm
11:29 17.1 °C 16.2 °C 1009.4 hPa NE 2 km/h 3.7 km/h 94.2% 0.0 mm
11:34 17.2 °C 16.2 °C 1009.4 hPa Calm   7.4 km/h 94% 0.0 mm
11:39 17.2 °C 16.2 °C 1009.6 hPa ONO 1.2 km/h 7.4 km/h 94% 0.0 mm
11:44 17.3 °C 16.3 °C 1009.6 hPa ONO 2.9 km/h 3.9 km/h 94% 0.0 mm
11:49 17.4 °C 16.4 °C 1009.6 hPa ONO 2.6 km/h 3.7 km/h 94% 0.0 mm
11:54 17.5 °C 16.5 °C 1009.6 hPa ONO 2.3 km/h 3.2 km/h 94% 0.0 mm
11:59 17.6 °C 16.5 °C 1009.4 hPa Oeste 2.3 km/h 7.4 km/h 93.5% 0.0 mm
12:04 17.6 °C 16.4 °C 1009.4 hPa ENE 2.3 km/h 8.4 km/h 93% 0.0 mm
12:09 17.6 °C 16.4 °C 1009.6 hPa NNE 2.9 km/h 7.4 km/h 93% 0.0 mm
12:14 17.6 °C 16.4 °C 1009.6 hPa NNE 3.9 km/h 5.6 km/h 93% 0.0 mm
12:19 17.7 °C 16.5 °C 1009.6 hPa NNE 3.2 km/h   92.6% 0.0 mm
12:24 17.8 °C 16.5 °C 1009.6 hPa NNE 2.3 km/h   92% 0.0 mm
12:29 17.9 °C 16.6 °C 1009.6 hPa NNE 1.3 km/h 5.8 km/h 92% 0.0 mm
12:34 18 °C 16.6 °C 1009.6 hPa Calm   5.8 km/h 91.6% 0.0 mm
12:39 18.2 °C 16.7 °C 1009.6 hPa ENE 1.1 km/h 5.6 km/h 91% 0.0 mm
12:44 18.3 °C 16.8 °C 1009.5 hPa Este 3.2 km/h 5.6 km/h 91% 0.0 mm
12:49 18.4 °C 16.9 °C 1009.5 hPa ENE 3.2 km/h 5.6 km/h 91% 0.0 mm
12:54 18.6 °C 16.9 °C 1009.6 hPa NNE 2.7 km/h 7.6 km/h 90% 0.0 mm
12:59 18.7 °C 17 °C 1009.6 hPa NE 3.3 km/h 8.4 km/h 90% 0.0 mm
13:04 18.8 °C 16.9 °C 1009.6 hPa North 4.7 km/h 7.6 km/h 89.2% 0.0 mm
13:09 18.9 °C 17 °C 1009.6 hPa NNO 4.2 km/h 5.6 km/h 89% 0.0 mm
13:14 19.1 °C 17.2 °C 1009.3 hPa NO 3.2 km/h 5.6 km/h 89% 0.0 mm
13:19 19.2 °C 17.2 °C 1009.3 hPa ONO 3.2 km/h 9.5 km/h 88.5% 0.0 mm
13:24 19.3 °C 17.3 °C 1009.3 hPa NO 3.2 km/h 8.4 km/h 88% 0.0 mm
13:29 19.5 °C 17.4 °C 1009.2 hPa NNO 3.6 km/h 7.4 km/h 87.7% 0.0 mm
13:34 19.8 °C 17.6 °C 1009.2 hPa NNO 5 km/h 4.7 km/h 87% 0.0 mm
13:39 20 °C 17.6 °C 1009.2 hPa ONO 4.2 km/h 7.6 km/h 85.9% 0.0 mm
13:44 20.3 °C 17.6 °C 1009.0 hPa ONO 2.3 km/h 7.4 km/h 84.6% 0.0 mm
13:49 20.6 °C 17.8 °C 1009.0 hPa NNO 2.3 km/h 4.7 km/h 83.8% 0.0 mm
13:54 20.8 °C 17.7 °C 1009.0 hPa ENE 2.3 km/h   82% 0.0 mm
13:59 21.2 °C 17.8 °C 1008.9 hPa ENE 1.3 km/h   81% 0.0 mm
14:04 21.4 °C 17.8 °C 1008.9 hPa Calm   5 km/h 80.1% 0.0 mm
14:09 21.7 °C 17.8 °C 1008.9 hPa NNE 1.2 km/h 5.8 km/h 78.7% 0.0 mm
14:14 21.8 °C 17.7 °C 1008.5 hPa NE 2.9 km/h 3.7 km/h 77.5% 0.0 mm
14:19 22.1 °C 17.6 °C 1008.5 hPa Este 2.9 km/h 8.4 km/h 75.6% 0.0 mm
14:24 22.3 °C 17.5 °C 1008.6 hPa ENE 2.9 km/h 8.4 km/h 74.4% 0.0 mm
14:29 22.3 °C 17.5 °C 1008.6 hPa NE 3.6 km/h 9.3 km/h 74% 0.0 mm
14:34 22.4 °C 17.7 °C 1008.6 hPa NNE 4.7 km/h 9.3 km/h 74.9% 0.0 mm
14:39 22.3 °C 17.7 °C 1008.6 hPa NE 5.1 km/h 9.5 km/h 75.1% 0.0 mm
14:44 22.2 °C 17.6 °C 1008.5 hPa NNE 5.8 km/h 8.4 km/h 75.5% 0.0 mm
14:49 22.1 °C 17.7 °C 1008.5 hPa NE 5.8 km/h 10 km/h 76% 0.0 mm
14:54 21.9 °C 17.6 °C 1008.5 hPa NNE 5.8 km/h 7.4 km/h 76.7% 0.0 mm
14:59 21.9 °C 17.7 °C 1008.5 hPa NNE 5.5 km/h 8.4 km/h 77% 0.0 mm
15:04 21.8 °C 17.6 °C 1008.5 hPa NNE 4.7 km/h 7.4 km/h 77.1% 0.0 mm
15:09 21.7 °C 17.7 °C 1008.6 hPa NNE 4.3 km/h 5 km/h 78% 0.0 mm
15:14 21.7 °C 17.7 °C 1008.6 hPa North 3.2 km/h 5.8 km/h 78% 0.0 mm
15:19 21.7 °C 17.7 °C 1008.6 hPa North 3.2 km/h 4.7 km/h 78% 0.0 mm
15:24 21.6 °C 17.6 °C 1008.6 hPa NNE 3.2 km/h 5.6 km/h 78% 0.0 mm
15:29 21.6 °C 17.6 °C 1008.6 hPa NNE 3.2 km/h 6.4 km/h 78% 0.0 mm
15:34 21.5 °C 17.4 °C 1008.6 hPa NE 3.7 km/h 7.6 km/h 77.5% 0.0 mm
15:39 21.4 °C 17.2 °C 1008.6 hPa NE 4.2 km/h 7.4 km/h 77% 0.0 mm
15:44 21.4 °C 17.2 °C 1008.6 hPa NE 4.7 km/h 5.8 km/h 77% 0.0 mm
15:49 21.4 °C 17.2 °C 1008.6 hPa NE 4.2 km/h 4.7 km/h 77% 0.0 mm
15:54 21.4 °C 17.2 °C 1008.6 hPa NE 3.2 km/h 7.4 km/h 77% 0.0 mm
15:59 21.4 °C 17.3 °C 1008.6 hPa NE 3.5 km/h 7.4 km/h 77.2% 0.0 mm
16:04 21.4 °C 17.5 °C 1008.6 hPa NNE 3.9 km/h 5.6 km/h 78.4% 0.0 mm
16:09 21.4 °C 17.6 °C 1008.8 hPa NNE 3.2 km/h 5.8 km/h 79.2% 0.0 mm
16:14 21.4 °C 17.9 °C 1008.8 hPa NE 2.3 km/h 7.6 km/h 80.4% 0.0 mm
16:19 21.3 °C 18.1 °C 1008.8 hPa NNE 3.2 km/h 9.5 km/h 81.8% 0.0 mm
16:24 21.2 °C 18.2 °C 1008.8 hPa NNE 5 km/h 10 km/h 83.3% 0.0 mm
16:29 21 °C 18 °C 1008.8 hPa NNE 5.4 km/h 11.1 km/h 83.4% 0.0 mm
16:34 20.8 °C 17.8 °C 1008.8 hPa NNE 6.4 km/h 11.1 km/h 83% 0.0 mm
16:39 20.7 °C 17.8 °C 1009.0 hPa NNE 6.9 km/h 11.1 km/h 83.5% 0.0 mm
16:44 20.7 °C 17.9 °C 1009.0 hPa NE 7.6 km/h 9.3 km/h 84% 0.0 mm
16:49 20.7 °C 17.8 °C 1009.0 hPa NE 7.2 km/h 11.1 km/h 84% 0.0 mm
16:54 20.6 °C 17.9 °C 1009.0 hPa NE 6.4 km/h 11.1 km/h 84.6% 0.0 mm
16:59 20.6 °C 18 °C 1008.8 hPa NE 6.6 km/h 13 km/h 85% 0.0 mm
17:04 20.5 °C 17.9 °C 1008.8 hPa NE 6.9 km/h 11.1 km/h 85% 0.0 mm
17:09 20.5 °C 18 °C 1009.0 hPa NE 6.9 km/h 11.1 km/h 85.9% 0.0 mm
17:14 20.4 °C 18 °C 1009.0 hPa NNE 6.9 km/h 11.9 km/h 86% 0.0 mm
17:19 20.3 °C 17.9 °C 1009.0 hPa NNE 6.9 km/h 13 km/h 86% 0.0 mm
17:24 20.3 °C 17.9 °C 1009.0 hPa NNE 6.9 km/h 13 km/h 86% 0.0 mm
17:29 20.3 °C 17.8 °C 1008.9 hPa NNE 7.2 km/h 11.9 km/h 86% 0.0 mm
17:34 20.2 °C 17.8 °C 1008.9 hPa NNE 7.6 km/h 11.1 km/h 86% 0.0 mm
17:39 20.2 °C 17.8 °C 1008.9 hPa NNE 6.9 km/h 7.6 km/h 86% 0.0 mm
17:44 20.2 °C 17.8 °C 1008.9 hPa North 5.8 km/h 8.4 km/h 86% 0.0 mm
17:49 20.2 °C 17.8 °C 1008.9 hPa North 5 km/h 7.6 km/h 86% 0.0 mm
17:54 20.3 °C 17.9 °C 1009.1 hPa NO 3.9 km/h 7.6 km/h 86% 0.0 mm
17:59 20.2 °C 17.7 °C 1009.1 hPa North 4.2 km/h 8.4 km/h 85.4% 0.0 mm
18:04 20.2 °C 17.6 °C 1009.1 hPa NNO 4.7 km/h 9.5 km/h 85% 0.0 mm
18:09 20.2 °C 17.6 °C 1009.3 hPa North 4.7 km/h 8.4 km/h 85% 0.0 mm
18:14 20.2 °C 17.6 °C 1009.3 hPa NNO 4.7 km/h 5.8 km/h 85% 0.0 mm
18:19 20.2 °C 17.6 °C 1009.3 hPa North 4.1 km/h 7.4 km/h 85% 0.0 mm
18:24 20.2 °C 17.4 °C 1009.5 hPa NE 3.2 km/h 7.4 km/h 84.1% 0.0 mm
18:29 20.2 °C 17.4 °C 1009.5 hPa NE 3.2 km/h 7.4 km/h 84% 0.0 mm
18:34 20.2 °C 17.4 °C 1009.5 hPa NO 3.2 km/h 7.4 km/h 84% 0.0 mm
18:39 20.2 °C 17.4 °C 1009.7 hPa NO 3.5 km/h 7.4 km/h 84% 0.0 mm
18:44 20.2 °C 17.4 °C 1009.7 hPa NNO 3.9 km/h 7.6 km/h 84% 0.0 mm
18:49 20.2 °C 17.4 °C 1009.7 hPa NNO 3.6 km/h 5.6 km/h 84% 0.0 mm
18:54 20.2 °C 17.5 °C 1009.8 hPa NNE 3.2 km/h 5.8 km/h 84.4% 0.0 mm
18:59 20.2 °C 17.6 °C 1009.8 hPa NE 2.8 km/h 4.7 km/h 85% 0.0 mm
19:04 20.2 °C 17.6 °C 1009.8 hPa NE 2.3 km/h 3.9 km/h 85% 0.0 mm
19:09 20.2 °C 17.6 °C 1009.9 hPa NE 1.4 km/h 3.7 km/h 85% 0.0 mm
19:14 20.2 °C 17.6 °C 1009.9 hPa Calm   6.4 km/h 85% 0.0 mm
19:19 20.2 °C 17.6 °C 1009.9 hPa SO 1.1 km/h 7.4 km/h 85.2% 0.0 mm
19:24 20.2 °C 17.8 °C 1010.0 hPa SO 2.9 km/h 5.8 km/h 86% 0.0 mm
19:29 20.2 °C 17.8 °C 1010.0 hPa SO 3.3 km/h 7.4 km/h 86% 0.0 mm
19:34 20.2 °C 17.8 °C 1010.0 hPa Oeste 3.9 km/h 8.4 km/h 86% 0.0 mm
19:39 20.2 °C 17.8 °C 1010.2 hPa NO 3.9 km/h 5.6 km/h 86% 0.0 mm
19:44 20.1 °C 17.7 °C 1010.2 hPa Este 3.9 km/h 5.8 km/h 86.1% 0.0 mm
19:49 20.1 °C 17.9 °C 1010.2 hPa ESE 3.5 km/h 5 km/h 87% 0.0 mm
19:54 20.1 °C 17.8 °C 1010.3 hPa ESE 2.9 km/h 9.5 km/h 87% 0.0 mm
19:59 19.9 °C 17.7 °C 1010.3 hPa ESE 3.8 km/h 9.3 km/h 87% 0.0 mm
20:04 19.8 °C 17.6 °C 1010.3 hPa ESE 5 km/h 9.3 km/h 87% 0.0 mm
20:09 19.8 °C 17.7 °C 1010.6 hPa ESE 4.9 km/h 7.4 km/h 87.5% 0.0 mm
20:14 19.8 °C 17.8 °C 1010.6 hPa ESE 4.7 km/h 5.8 km/h 88% 0.0 mm
20:19 19.8 °C 17.8 °C 1010.6 hPa ESE 4 km/h 5.6 km/h 88% 0.0 mm
20:24 19.8 °C 17.8 °C 1010.7 hPa ESE 2.9 km/h 6.4 km/h 88% 0.0 mm
20:29 19.9 °C 17.8 °C 1010.7 hPa ESE 3.3 km/h 7.6 km/h 88% 0.0 mm
20:34 19.9 °C 17.8 °C 1010.7 hPa SE 3.9 km/h 7.6 km/h 88% 0.0 mm
20:39 19.9 °C 17.9 °C 1010.9 hPa SE 4.2 km/h 7.4 km/h 88% 0.0 mm
20:44 19.9 °C 17.9 °C 1010.9 hPa SE 4.7 km/h 3.7 km/h 88% 0.0 mm
20:49 19.9 °C 17.8 °C 1010.9 hPa SSE 3.7 km/h 7.4 km/h 88% 0.0 mm
20:54 19.9 °C 17.8 °C 1011.2 hPa OSO 2.3 km/h 7.4 km/h 88% 0.0 mm
20:59 19.9 °C 17.8 °C 1011.2 hPa OSO 2.5 km/h 5.6 km/h 88% 0.0 mm
21:04 19.8 °C 17.8 °C 1011.2 hPa OSO 2.9 km/h 5.8 km/h 88% 0.0 mm
21:09 19.8 °C 17.8 °C 1011.3 hPa OSO 2.9 km/h 5.8 km/h 88% 0.0 mm
21:14 19.8 °C 17.8 °C 1011.3 hPa OSO 2.9 km/h 5.8 km/h 88% 0.0 mm
21:19 19.8 °C 17.8 °C 1011.3 hPa OSO 3.3 km/h 7.4 km/h 88% 0.0 mm
21:24 19.7 °C 17.7 °C 1011.6 hPa Oeste 3.9 km/h 5.6 km/h 88% 0.0 mm
21:29 19.7 °C 17.7 °C 1011.6 hPa Oeste 3.6 km/h 5.6 km/h 88% 0.0 mm
21:34 19.7 °C 17.7 °C 1011.6 hPa SO 3.2 km/h 8.4 km/h 88.3% 0.0 mm
21:39 19.7 °C 17.9 °C 1011.6 hPa ESE 3.5 km/h 10 km/h 89% 0.0 mm
21:44 19.7 °C 17.8 °C 1011.5 hPa Este 3.9 km/h 5.6 km/h 88.5% 0.0 mm
21:49 19.7 °C 17.8 °C 1011.5 hPa SE 3.6 km/h 7.4 km/h 88.9% 0.0 mm
21:54 19.7 °C 17.8 °C 1011.7 hPa SSE 3.2 km/h 5.8 km/h 89% 0.0 mm
21:59 19.7 °C 17.8 °C 1011.7 hPa SSE 3.2 km/h 4.7 km/h 89% 0.0 mm
22:04 19.7 °C 17.8 °C 1011.7 hPa SSE 3.2 km/h 7.4 km/h 89% 0.0 mm
22:09 19.7 °C 17.8 °C 1011.7 hPa SE 3.5 km/h 7.4 km/h 89% 0.0 mm
22:14 19.6 °C 17.7 °C 1011.7 hPa SE 3.9 km/h 5.6 km/h 89% 0.0 mm
22:19 19.6 °C 17.7 °C 1011.7 hPa SE 3.2 km/h 6.9 km/h 89% 0.0 mm
22:24 19.6 °C 17.7 °C 1011.7 hPa SSE 2.3 km/h 7.4 km/h 89% 0.0 mm
22:29 19.6 °C 17.9 °C 1011.7 hPa ESE 2.9 km/h 7.4 km/h 89.9% 0.0 mm
22:34 19.5 °C 17.8 °C 1011.7 hPa Este 3.9 km/h 7.4 km/h 90% 0.0 mm
22:39 19.5 °C 17.8 °C 1011.7 hPa SE 3.5 km/h 5.8 km/h 90% 0.0 mm
22:44 19.5 °C 17.8 °C 1011.5 hPa SO 2.9 km/h 5.8 km/h 90% 0.0 mm
22:49 19.4 °C 17.8 °C 1011.5 hPa Oeste 3.3 km/h 10 km/h 90% 0.0 mm
22:54 19.4 °C 17.7 °C 1011.8 hPa NNO 3.9 km/h 9.3 km/h 90% 0.0 mm
22:59 19.3 °C 17.6 °C 1011.8 hPa NNO 3.6 km/h 4.7 km/h 90% 0.0 mm
23:04 19.3 °C 17.8 °C 1011.8 hPa NE 3.2 km/h 7.4 km/h 90.9% 0.0 mm
23:09 19.3 °C 17.8 °C 1011.8 hPa ENE 3.2 km/h 5.6 km/h 91% 0.0 mm
23:14 19.2 °C 17.7 °C 1011.7 hPa ENE 3.2 km/h 5.6 km/h 91% 0.0 mm
23:19 19.2 °C 17.7 °C 1011.7 hPa ENE 2.8 km/h 4.7 km/h 91% 0.0 mm
23:24 19.2 °C 17.7 °C 1011.8 hPa Este 2.3 km/h 5.8 km/h 91% 0.0 mm
23:29 19.2 °C 17.8 °C 1011.8 hPa Este 2.5 km/h 3.7 km/h 91.8% 0.0 mm
23:34 19.2 °C 17.9 °C 1011.8 hPa Este 2.9 km/h 5 km/h 92% 0.0 mm
23:39 19.2 °C 17.9 °C 1011.8 hPa Este 2.6 km/h 5.6 km/h 92% 0.0 mm
23:44 19.2 °C 17.9 °C 1011.7 hPa Este 2.3 km/h 3.7 km/h 92% 0.0 mm
23:49 19.2 °C 17.9 °C 1011.7 hPa Este 1.3 km/h   92% 0.0 mm
23:54 19.2 °C 17.8 °C 1011.7 hPa Calm   3.9 km/h 92% 0.0 mm
23:59 19.2 °C 17.9 °C 1011.7 hPa Este 1 km/h 3.7 km/h 92% 0.0 mm
Murcia-Puente Tocinos, Espa?a
Compliments of Weather Underground - 3 mb

La estación de MeteoMurcia.com, publica sus datos en los siguientes proyectos:

Weather Underground PWS IMURCIAP2 Meteoclimatic www.awekas.at

W3Counter
Web Analytics